ADDS METAR Data INFO
IDs: Format: Raw Decoded Include TAF

Data at: 1231 UTC 20 Jul 2017

EGBB 201220Z 29013KT 240V310 9999 SCT040 17/08 Q1007

No METAR found for EGBE

EGBJ 201220Z 30014KT 9999 SCT037 18/09 Q1008

EGVN 201150Z 27008KT 9999 SCT032 18/11 Q1008 BLU NOSIG

EGTK 201220Z 28011KT 250V310 9999 FEW037 SCT042 19/09 Q1008

EGWC 201150Z 27011KT 9999 SCT028 16/04 Q1008 BLU